sensor_id;sensor_type;location;lat;lon;timestamp;pressure;altitude;pressure_sealevel;temperature;humidity
85936;BME280;76481;54.346;10.210;2024-02-28T00:00:44;101757.28;;;3.13;82.82
85936;BME280;76481;54.346;10.210;2024-02-28T00:03:10;101757.97;;;3.03;83.53
85936;BME280;76481;54.346;10.210;2024-02-28T00:05:35;101765.47;;;2.99;83.07
85936;BME280;76481;54.346;10.210;2024-02-28T00:08:01;101760.28;;;2.98;82.72
85936;BME280;76481;54.346;10.210;2024-02-28T00:10:26;101758.84;;;3.07;81.32
85936;BME280;76481;54.346;10.210;2024-02-28T00:12:52;101751.72;;;3.13;80.55
85936;BME280;76481;54.346;10.210;2024-02-28T00:15:17;101752.06;;;3.08;80.06
85936;BME280;76481;54.346;10.210;2024-02-28T00:17:43;101762.41;;;3.08;80.13
85936;BME280;76481;54.346;10.210;2024-02-28T00:20:09;101759.31;;;3.13;79.98
85936;BME280;76481;54.346;10.210;2024-02-28T00:22:36;101763.69;;;3.14;81.00
85936;BME280;76481;54.346;10.210;2024-02-28T00:25:04;101765.16;;;3.04;79.55
85936;BME280;76481;54.346;10.210;2024-02-28T00:27:32;101755.56;;;3.02;79.61
85936;BME280;76481;54.346;10.210;2024-02-28T00:29:58;101748.69;;;2.96;79.78
85936;BME280;76481;54.346;10.210;2024-02-28T00:32:24;101745.81;;;2.89;80.38
85936;BME280;76481;54.346;10.210;2024-02-28T00:34:49;101745.91;;;2.96;80.13
85936;BME280;76481;54.346;10.210;2024-02-28T00:37:14;101743.47;;;2.91;79.88
85936;BME280;76481;54.346;10.210;2024-02-28T00:39:40;101730.25;;;2.84;79.88
85936;BME280;76481;54.346;10.210;2024-02-28T00:42:05;101719.47;;;2.83;79.00
85936;BME280;76481;54.346;10.210;2024-02-28T00:44:31;101723.41;;;2.78;79.29
85936;BME280;76481;54.346;10.210;2024-02-28T00:46:56;101728.94;;;2.75;79.08
85936;BME280;76481;54.346;10.210;2024-02-28T00:49:22;101726.56;;;2.77;80.18
85936;BME280;76481;54.346;10.210;2024-02-28T00:51:47;101728.88;;;2.71;80.18
85936;BME280;76481;54.346;10.210;2024-02-28T00:54:13;101725.72;;;2.73;79.40
85936;BME280;76481;54.346;10.210;2024-02-28T00:56:38;101732.94;;;2.51;79.31
85936;BME280;76481;54.346;10.210;2024-02-28T00:59:04;101713.13;;;2.56;79.43
85936;BME280;76481;54.346;10.210;2024-02-28T01:01:31;101704.41;;;2.58;79.01
85936;BME280;76481;54.346;10.210;2024-02-28T01:03:57;101707.19;;;2.58;79.29
85936;BME280;76481;54.346;10.210;2024-02-28T01:06:22;101709.56;;;2.56;79.59
85936;BME280;76481;54.346;10.210;2024-02-28T01:08:48;101708.81;;;2.59;80.35
85936;BME280;76481;54.346;10.210;2024-02-28T01:11:13;101713.94;;;2.57;79.47
85936;BME280;76481;54.346;10.210;2024-02-28T01:13:38;101716.56;;;2.46;78.85
85936;BME280;76481;54.346;10.210;2024-02-28T01:16:04;101737.91;;;2.39;79.39
85936;BME280;76481;54.346;10.210;2024-02-28T01:18:29;101730.09;;;2.48;79.91
85936;BME280;76481;54.346;10.210;2024-02-28T01:20:57;101729.03;;;2.56;79.60
85936;BME280;76481;54.346;10.210;2024-02-28T01:23:22;101738.16;;;2.53;78.84
85936;BME280;76481;54.346;10.210;2024-02-28T01:25:48;101735.75;;;2.51;78.99
85936;BME280;76481;54.346;10.210;2024-02-28T01:28:13;101730.94;;;2.52;78.46
85936;BME280;76481;54.346;10.210;2024-02-28T01:30:39;101722.97;;;2.50;79.54
85936;BME280;76481;54.346;10.210;2024-02-28T01:33:04;101728.16;;;2.52;78.05
85936;BME280;76481;54.346;10.210;2024-02-28T01:35:30;101719.81;;;2.52;78.62
85936;BME280;76481;54.346;10.210;2024-02-28T01:37:55;101717.91;;;2.56;79.12
85936;BME280;76481;54.346;10.210;2024-02-28T01:40:21;101721.44;;;2.53;79.03
85936;BME280;76481;54.346;10.210;2024-02-28T01:42:46;101713.03;;;2.49;78.93
85936;BME280;76481;54.346;10.210;2024-02-28T01:45:13;101714.69;;;2.54;79.68
85936;BME280;76481;54.346;10.210;2024-02-28T01:47:41;101715.81;;;2.49;79.01
85936;BME280;76481;54.346;10.210;2024-02-28T01:50:07;101718.22;;;2.51;79.16
85936;BME280;76481;54.346;10.210;2024-02-28T01:52:33;101718.59;;;2.49;79.37
85936;BME280;76481;54.346;10.210;2024-02-28T01:54:59;101715.75;;;2.46;79.31
85936;BME280;76481;54.346;10.210;2024-02-28T01:57:24;101705.25;;;2.36;79.59
85936;BME280;76481;54.346;10.210;2024-02-28T01:59:51;101720.94;;;2.21;79.86
85936;BME280;76481;54.346;10.210;2024-02-28T02:02:17;101721.09;;;2.32;79.77
85936;BME280;76481;54.346;10.210;2024-02-28T02:04:43;101710.16;;;2.42;79.32
85936;BME280;76481;54.346;10.210;2024-02-28T02:07:08;101705.81;;;2.45;79.13
85936;BME280;76481;54.346;10.210;2024-02-28T02:09:34;101702.59;;;2.43;79.02
85936;BME280;76481;54.346;10.210;2024-02-28T02:12:00;101707.00;;;2.44;79.32
85936;BME280;76481;54.346;10.210;2024-02-28T02:14:26;101719.69;;;2.41;79.80
85936;BME280;76481;54.346;10.210;2024-02-28T02:16:51;101704.09;;;2.37;80.15
85936;BME280;76481;54.346;10.210;2024-02-28T02:19:17;101707.63;;;2.34;80.19
85936;BME280;76481;54.346;10.210;2024-02-28T02:21:49;101716.94;;;2.18;80.35
85936;BME280;76481;54.346;10.210;2024-02-28T02:24:17;101718.41;;;2.12;80.92
85936;BME280;76481;54.346;10.210;2024-02-28T02:26:42;101712.97;;;2.19;80.33
85936;BME280;76481;54.346;10.210;2024-02-28T02:29:11;101719.16;;;2.09;80.11
85936;BME280;76481;54.346;10.210;2024-02-28T02:31:36;101717.28;;;2.17;80.08
85936;BME280;76481;54.346;10.210;2024-02-28T02:34:01;101724.16;;;2.23;79.97
85936;BME280;76481;54.346;10.210;2024-02-28T02:36:27;101724.81;;;2.16;79.73
85936;BME280;76481;54.346;10.210;2024-02-28T02:38:52;101722.59;;;2.26;79.24
85936;BME280;76481;54.346;10.210;2024-02-28T02:41:18;101723.22;;;2.15;79.58
85936;BME280;76481;54.346;10.210;2024-02-28T02:43:43;101724.09;;;2.19;79.10
85936;BME280;76481;54.346;10.210;2024-02-28T02:46:09;101726.19;;;2.26;78.75
85936;BME280;76481;54.346;10.210;2024-02-28T02:48:34;101721.31;;;2.19;79.57
85936;BME280;76481;54.346;10.210;2024-02-28T02:50:59;101720.44;;;2.15;79.95
85936;BME280;76481;54.346;10.210;2024-02-28T02:53:25;101725.47;;;2.06;80.37
85936;BME280;76481;54.346;10.210;2024-02-28T02:55:50;101728.34;;;2.13;79.25
85936;BME280;76481;54.346;10.210;2024-02-28T02:58:16;101733.63;;;2.18;80.17
85936;BME280;76481;54.346;10.210;2024-02-28T03:00:41;101735.22;;;2.19;79.58
85936;BME280;76481;54.346;10.210;2024-02-28T03:03:07;101733.28;;;2.23;79.61
85936;BME280;76481;54.346;10.210;2024-02-28T03:05:32;101734.53;;;2.26;79.27
85936;BME280;76481;54.346;10.210;2024-02-28T03:07:58;101736.41;;;2.18;79.70
85936;BME280;76481;54.346;10.210;2024-02-28T03:10:23;101732.91;;;2.25;79.81
85936;BME280;76481;54.346;10.210;2024-02-28T03:12:48;101738.53;;;2.29;80.32
85936;BME280;76481;54.346;10.210;2024-02-28T03:15:14;101731.56;;;2.38;79.44
85936;BME280;76481;54.346;10.210;2024-02-28T03:17:39;101731.41;;;2.31;79.92
85936;BME280;76481;54.346;10.210;2024-02-28T03:20:05;101726.75;;;2.35;79.44
85936;BME280;76481;54.346;10.210;2024-02-28T03:22:32;101729.66;;;2.46;79.17
85936;BME280;76481;54.346;10.210;2024-02-28T03:24:58;101720.47;;;2.42;79.74
85936;BME280;76481;54.346;10.210;2024-02-28T03:27:24;101723.69;;;2.44;79.75
85936;BME280;76481;54.346;10.210;2024-02-28T03:29:49;101722.56;;;2.48;79.41
85936;BME280;76481;54.346;10.210;2024-02-28T03:32:15;101725.84;;;2.31;80.00
85936;BME280;76481;54.346;10.210;2024-02-28T03:34:40;101724.34;;;2.34;80.19
85936;BME280;76481;54.346;10.210;2024-02-28T03:37:06;101726.41;;;2.40;80.36
85936;BME280;76481;54.346;10.210;2024-02-28T03:39:31;101726.03;;;2.42;79.95
85936;BME280;76481;54.346;10.210;2024-02-28T03:41:56;101728.25;;;2.33;80.03
85936;BME280;76481;54.346;10.210;2024-02-28T03:44:22;101721.66;;;2.41;80.40
85936;BME280;76481;54.346;10.210;2024-02-28T03:46:47;101712.56;;;2.44;80.74
85936;BME280;76481;54.346;10.210;2024-02-28T03:49:13;101711.81;;;2.47;79.68
85936;BME280;76481;54.346;10.210;2024-02-28T03:51:42;101711.75;;;2.43;79.96
85936;BME280;76481;54.346;10.210;2024-02-28T03:54:08;101715.34;;;2.44;79.84
85936;BME280;76481;54.346;10.210;2024-02-28T03:56:33;101720.47;;;2.42;79.20
85936;BME280;76481;54.346;10.210;2024-02-28T03:59:00;101718.31;;;2.32;80.98
85936;BME280;76481;54.346;10.210;2024-02-28T04:01:26;101721.09;;;2.32;80.87
85936;BME280;76481;54.346;10.210;2024-02-28T04:03:51;101722.66;;;2.29;80.80
85936;BME280;76481;54.346;10.210;2024-02-28T04:06:17;101718.94;;;2.44;80.51
85936;BME280;76481;54.346;10.210;2024-02-28T04:08:42;101715.75;;;2.46;80.76
85936;BME280;76481;54.346;10.210;2024-02-28T04:11:08;101704.63;;;2.46;80.71
85936;BME280;76481;54.346;10.210;2024-02-28T04:13:33;101709.72;;;2.40;80.78
85936;BME280;76481;54.346;10.210;2024-02-28T04:15:59;101720.47;;;2.42;80.95
85936;BME280;76481;54.346;10.210;2024-02-28T04:18:24;101733.16;;;2.39;81.32
85936;BME280;76481;54.346;10.210;2024-02-28T04:20:49;101717.13;;;2.33;81.55
85936;BME280;76481;54.346;10.210;2024-02-28T04:23:15;101704.50;;;2.39;80.77
85936;BME280;76481;54.346;10.210;2024-02-28T04:25:42;101710.53;;;2.41;81.38
85936;BME280;76481;54.346;10.210;2024-02-28T04:28:07;101705.03;;;2.44;81.39
85936;BME280;76481;54.346;10.210;2024-02-28T04:30:34;101710.97;;;2.43;81.33
85936;BME280;76481;54.346;10.210;2024-02-28T04:32:59;101695.69;;;2.33;80.75
85936;BME280;76481;54.346;10.210;2024-02-28T04:35:25;101704.97;;;2.41;80.86
85936;BME280;76481;54.346;10.210;2024-02-28T04:37:50;101698.09;;;2.35;81.84
85936;BME280;76481;54.346;10.210;2024-02-28T04:40:16;101701.72;;;2.39;81.81
85936;BME280;76481;54.346;10.210;2024-02-28T04:42:42;101710.81;;;2.36;81.47
85936;BME280;76481;54.346;10.210;2024-02-28T04:45:09;101702.81;;;2.31;81.56
85936;BME280;76481;54.346;10.210;2024-02-28T04:47:35;101708.75;;;2.29;81.29
85936;BME280;76481;54.346;10.210;2024-02-28T04:50:01;101711.56;;;2.33;81.89
85936;BME280;76481;54.346;10.210;2024-02-28T04:52:27;101702.84;;;2.34;82.32
85936;BME280;76481;54.346;10.210;2024-02-28T04:54:52;101707.19;;;2.32;82.15
85936;BME280;76481;54.346;10.210;2024-02-28T04:57:18;101714.69;;;2.28;82.17
85936;BME280;76481;54.346;10.210;2024-02-28T04:59:44;101721.84;;;2.29;82.77
85936;BME280;76481;54.346;10.210;2024-02-28T05:02:10;101717.47;;;2.28;81.93
85936;BME280;76481;54.346;10.210;2024-02-28T05:04:35;101722.59;;;2.26;83.17
85936;BME280;76481;54.346;10.210;2024-02-28T05:07:01;101722.59;;;2.26;82.49
85936;BME280;76481;54.346;10.210;2024-02-28T05:09:27;101727.34;;;2.25;83.08
85936;BME280;76481;54.346;10.210;2024-02-28T05:11:53;101725.72;;;2.21;83.13
85936;BME280;76481;54.346;10.210;2024-02-28T05:14:18;101721.75;;;2.22;82.84
85936;BME280;76481;54.346;10.210;2024-02-28T05:16:44;101725.72;;;2.21;83.26
85936;BME280;76481;54.346;10.210;2024-02-28T05:19:09;101726.09;;;2.19;83.00
85936;BME280;76481;54.346;10.210;2024-02-28T05:21:42;101728.06;;;2.18;83.07
85936;BME280;76481;54.346;10.210;2024-02-28T05:24:08;101728.06;;;2.18;83.40
85936;BME280;76481;54.346;10.210;2024-02-28T05:26:37;101729.09;;;2.10;83.66
85936;BME280;76481;54.346;10.210;2024-02-28T05:29:03;101740.22;;;2.10;83.56
85936;BME280;76481;54.346;10.210;2024-02-28T05:31:30;101720.63;;;2.03;84.22
85936;BME280;76481;54.346;10.210;2024-02-28T05:33:58;101735.72;;;2.02;83.99
85936;BME280;76481;54.346;10.210;2024-02-28T05:36:25;101732.50;;;2.00;83.90
85936;BME280;76481;54.346;10.210;2024-02-28T05:38:52;101735.00;;;2.05;85.08
85936;BME280;76481;54.346;10.210;2024-02-28T05:41:17;101741.28;;;2.02;84.44
85936;BME280;76481;54.346;10.210;2024-02-28T05:43:43;101734.16;;;2.05;84.39
85936;BME280;76481;54.346;10.210;2024-02-28T05:46:09;101731.84;;;2.07;84.14
85936;BME280;76481;54.346;10.210;2024-02-28T05:48:35;101730.94;;;2.03;85.11
85936;BME280;76481;54.346;10.210;2024-02-28T05:51:01;101735.72;;;2.02;84.61
85936;BME280;76481;54.346;10.210;2024-02-28T05:53:27;101730.06;;;1.95;84.69
85936;BME280;76481;54.346;10.210;2024-02-28T05:55:54;101733.97;;;1.94;84.21
85936;BME280;76481;54.346;10.210;2024-02-28T05:58:25;101732.09;;;1.98;84.06
85936;BME280;76481;54.346;10.210;2024-02-28T06:00:51;101733.25;;;1.97;84.52
85936;BME280;76481;54.346;10.210;2024-02-28T06:03:16;101738.06;;;2.00;83.28
85936;BME280;76481;54.346;10.210;2024-02-28T06:05:42;101739.25;;;1.99;83.98
85936;BME280;76481;54.346;10.210;2024-02-28T06:08:07;101739.66;;;2.01;84.24
85936;BME280;76481;54.346;10.210;2024-02-28T06:10:33;101743.75;;;2.07;84.39
85936;BME280;76481;54.346;10.210;2024-02-28T06:12:58;101730.72;;;2.11;83.49
85936;BME280;76481;54.346;10.210;2024-02-28T06:15:24;101737.44;;;2.10;84.07
85936;BME280;76481;54.346;10.210;2024-02-28T06:17:49;101745.38;;;2.08;83.61
85936;BME280;76481;54.346;10.210;2024-02-28T06:20:15;101743.75;;;2.07;83.59
85936;BME280;76481;54.346;10.210;2024-02-28T06:22:40;101748.56;;;2.10;83.36
85936;BME280;76481;54.346;10.210;2024-02-28T06:25:06;101748.56;;;2.10;83.90
85936;BME280;76481;54.346;10.210;2024-02-28T06:27:39;101759.75;;;2.14;83.65
85936;BME280;76481;54.346;10.210;2024-02-28T06:30:05;101764.50;;;2.13;84.30
85936;BME280;76481;54.346;10.210;2024-02-28T06:32:32;101754.88;;;2.07;83.65
85936;BME280;76481;54.346;10.210;2024-02-28T06:34:57;101762.06;;;2.08;84.28
85936;BME280;76481;54.346;10.210;2024-02-28T06:37:23;101758.84;;;2.06;84.29
85936;BME280;76481;54.346;10.210;2024-02-28T06:39:48;101761.91;;;2.01;84.63
85936;BME280;76481;54.346;10.210;2024-02-28T06:42:14;101756.78;;;2.03;83.86
85936;BME280;76481;54.346;10.210;2024-02-28T06:44:39;101762.06;;;2.08;84.60
85936;BME280;76481;54.346;10.210;2024-02-28T06:47:05;101760.88;;;2.09;83.68
85936;BME280;76481;54.346;10.210;2024-02-28T06:49:30;101760.56;;;2.14;84.05
85936;BME280;76481;54.346;10.210;2024-02-28T06:51:55;101754.56;;;2.12;83.88
85936;BME280;76481;54.346;10.210;2024-02-28T06:54:24;101749.75;;;2.09;84.19
85936;BME280;76481;54.346;10.210;2024-02-28T06:56:50;101751.72;;;2.09;84.20
85936;BME280;76481;54.346;10.210;2024-02-28T06:59:15;101753.28;;;2.06;85.27
85936;BME280;76481;54.346;10.210;2024-02-28T07:01:40;101763.66;;;2.09;84.56
85936;BME280;76481;54.346;10.210;2024-02-28T07:04:06;101763.78;;;2.16;84.69
85936;BME280;76481;54.346;10.210;2024-02-28T07:06:31;101770.22;;;2.21;84.63
85936;BME280;76481;54.346;10.210;2024-02-28T07:08:57;101763.03;;;2.19;84.42
85936;BME280;76481;54.346;10.210;2024-02-28T07:11:22;101767.84;;;2.22;84.72
85936;BME280;76481;54.346;10.210;2024-02-28T07:13:48;101771.88;;;2.25;84.28
85936;BME280;76481;54.346;10.210;2024-02-28T07:16:13;101782.69;;;2.30;84.03
85936;BME280;76481;54.346;10.210;2024-02-28T07:18:39;101780.03;;;2.37;84.38
85936;BME280;76481;54.346;10.210;2024-02-28T07:21:04;101782.06;;;2.40;84.08
85936;BME280;76481;54.346;10.210;2024-02-28T07:23:32;101776.56;;;2.44;83.51
85936;BME280;76481;54.346;10.210;2024-02-28T07:25:57;101787.31;;;2.45;83.42
85936;BME280;76481;54.346;10.210;2024-02-28T07:28:23;101795.69;;;2.45;83.29
85936;BME280;76481;54.346;10.210;2024-02-28T07:30:48;101797.38;;;2.53;83.30
85936;BME280;76481;54.346;10.210;2024-02-28T07:33:14;101804.94;;;2.53;83.32
85936;BME280;76481;54.346;10.210;2024-02-28T07:35:46;101798.13;;;2.50;83.35
85936;BME280;76481;54.346;10.210;2024-02-28T07:38:11;101791.03;;;2.53;83.69
85936;BME280;76481;54.346;10.210;2024-02-28T07:40:37;101792.19;;;2.52;83.33
85936;BME280;76481;54.346;10.210;2024-02-28T07:43:02;101804.19;;;2.56;83.06
85936;BME280;76481;54.346;10.210;2024-02-28T07:45:28;101794.22;;;2.55;83.80
85936;BME280;76481;54.346;10.210;2024-02-28T07:47:53;101792.44;;;2.66;83.14
85936;BME280;76481;54.346;10.210;2024-02-28T07:50:19;101794.25;;;2.81;83.13
85936;BME280;76481;54.346;10.210;2024-02-28T07:52:44;101788.06;;;2.94;82.94
85936;BME280;76481;54.346;10.210;2024-02-28T07:55:10;101796.19;;;3.03;82.10
85936;BME280;76481;54.346;10.210;2024-02-28T07:57:35;101789.84;;;3.06;82.44
85936;BME280;76481;54.346;10.210;2024-02-28T08:00:01;101801.00;;;3.06;81.94
85936;BME280;76481;54.346;10.210;2024-02-28T08:02:27;101785.78;;;3.00;82.63
85936;BME280;76481;54.346;10.210;2024-02-28T08:04:52;101785.88;;;3.07;82.15
85936;BME280;76481;54.346;10.210;2024-02-28T08:07:17;101788.34;;;3.12;81.95
85936;BME280;76481;54.346;10.210;2024-02-28T08:09:43;101793.19;;;3.18;82.16
85936;BME280;76481;54.346;10.210;2024-02-28T08:12:08;101800.38;;;3.19;81.70
85936;BME280;76481;54.346;10.210;2024-02-28T08:14:34;101811.56;;;3.23;81.48
85936;BME280;76481;54.346;10.210;2024-02-28T08:16:59;101800.00;;;3.21;81.46
85936;BME280;76481;54.346;10.210;2024-02-28T08:19:25;101804.88;;;3.27;81.50
85936;BME280;76481;54.346;10.210;2024-02-28T08:21:50;101799.69;;;3.26;81.26
85936;BME280;76481;54.346;10.210;2024-02-28T08:24:16;101803.28;;;3.26;81.37
85936;BME280;76481;54.346;10.210;2024-02-28T08:26:41;101799.44;;;3.38;81.66
85936;BME280;76481;54.346;10.210;2024-02-28T08:29:07;101810.22;;;3.39;81.83
85936;BME280;76481;54.346;10.210;2024-02-28T08:31:32;101811.66;;;3.30;80.83
85936;BME280;76481;54.346;10.210;2024-02-28T08:33:58;101803.66;;;3.25;81.46
85936;BME280;76481;54.346;10.210;2024-02-28T08:36:23;101809.41;;;3.39;81.62
85936;BME280;76481;54.346;10.210;2024-02-28T08:38:49;101811.50;;;3.45;81.53
85936;BME280;76481;54.346;10.210;2024-02-28T08:41:16;101802.84;;;3.57;81.01
85936;BME280;76481;54.346;10.210;2024-02-28T08:43:42;101803.34;;;3.63;80.72
85936;BME280;76481;54.346;10.210;2024-02-28T08:46:08;101799.69;;;3.59;80.46
85936;BME280;76481;54.346;10.210;2024-02-28T08:48:33;101810.66;;;3.74;80.73
85936;BME280;76481;54.346;10.210;2024-02-28T08:50:59;101816.44;;;3.92;80.59
85936;BME280;76481;54.346;10.210;2024-02-28T08:53:25;101815.72;;;3.98;79.35
85936;BME280;76481;54.346;10.210;2024-02-28T08:55:50;101808.25;;;4.09;80.17
85936;BME280;76481;54.346;10.210;2024-02-28T08:58:16;101807.59;;;4.23;78.92
85936;BME280;76481;54.346;10.210;2024-02-28T09:00:42;101817.88;;;4.15;78.82
85936;BME280;76481;54.346;10.210;2024-02-28T09:03:07;101821.00;;;4.10;78.32
85936;BME280;76481;54.346;10.210;2024-02-28T09:05:33;101822.66;;;4.15;79.01
85936;BME280;76481;54.346;10.210;2024-02-28T09:07:58;101815.78;;;4.05;79.21
85936;BME280;76481;54.346;10.210;2024-02-28T09:10:24;101816.47;;;3.95;79.07
85936;BME280;76481;54.346;10.210;2024-02-28T09:12:52;101825.56;;;3.89;79.56
85936;BME280;76481;54.346;10.210;2024-02-28T09:15:19;101818.75;;;3.86;79.78
85936;BME280;76481;54.346;10.210;2024-02-28T09:17:44;101818.75;;;3.86;79.83
85936;BME280;76481;54.346;10.210;2024-02-28T09:20:10;101818.72;;;3.83;79.95
85936;BME280;76481;54.346;10.210;2024-02-28T09:22:37;101829.94;;;3.90;80.83
85936;BME280;76481;54.346;10.210;2024-02-28T09:25:03;101825.63;;;3.96;80.41
85936;BME280;76481;54.346;10.210;2024-02-28T09:27:30;101833.28;;;4.02;80.64
85936;BME280;76481;54.346;10.210;2024-02-28T09:29:56;101832.97;;;4.11;79.58
85936;BME280;76481;54.346;10.210;2024-02-28T09:32:21;101836.53;;;4.08;79.81
85936;BME280;76481;54.346;10.210;2024-02-28T09:34:47;101835.25;;;3.98;81.44
85936;BME280;76481;54.346;10.210;2024-02-28T09:37:13;101838.81;;;3.99;80.52
85936;BME280;76481;54.346;10.210;2024-02-28T09:39:39;101830.88;;;4.01;80.71
85936;BME280;76481;54.346;10.210;2024-02-28T09:42:06;101835.31;;;4.05;80.47
85936;BME280;76481;54.346;10.210;2024-02-28T09:44:32;101844.09;;;4.07;80.19
85936;BME280;76481;54.346;10.210;2024-02-28T09:46:57;101830.13;;;4.04;80.48
85936;BME280;76481;54.346;10.210;2024-02-28T09:49:24;101837.03;;;4.17;80.56
85936;BME280;76481;54.346;10.210;2024-02-28T09:51:52;101842.66;;;4.20;80.15
85936;BME280;76481;54.346;10.210;2024-02-28T09:54:18;101840.31;;;4.26;80.00
85936;BME280;76481;54.346;10.210;2024-02-28T09:56:44;101833.59;;;4.34;79.96
85936;BME280;76481;54.346;10.210;2024-02-28T09:59:10;101837.22;;;4.34;79.78
85936;BME280;76481;54.346;10.210;2024-02-28T10:01:42;101834.84;;;4.40;79.29
85936;BME280;76481;54.346;10.210;2024-02-28T10:04:09;101840.94;;;4.49;79.98
85936;BME280;76481;54.346;10.210;2024-02-28T10:06:36;101840.94;;;4.49;78.87
85936;BME280;76481;54.346;10.210;2024-02-28T10:09:01;101844.22;;;4.58;79.43
85936;BME280;76481;54.346;10.210;2024-02-28T10:11:27;101855.41;;;4.62;79.03
85936;BME280;76481;54.346;10.210;2024-02-28T10:13:53;101861.41;;;4.60;79.53
85936;BME280;76481;54.346;10.210;2024-02-28T10:16:20;101852.69;;;4.69;79.17
85936;BME280;76481;54.346;10.210;2024-02-28T10:18:46;101855.44;;;4.65;79.53
85936;BME280;76481;54.346;10.210;2024-02-28T10:21:11;101858.28;;;4.72;78.55
85936;BME280;76481;54.346;10.210;2024-02-28T10:23:41;101850.94;;;4.54;79.36
85936;BME280;76481;54.346;10.210;2024-02-28T10:26:10;101845.41;;;4.57;79.86
85936;BME280;76481;54.346;10.210;2024-02-28T10:28:37;101865.06;;;4.68;80.75
85936;BME280;76481;54.346;10.210;2024-02-28T10:31:04;101861.06;;;4.72;79.84
85936;BME280;76481;54.346;10.210;2024-02-28T10:33:29;101857.16;;;4.80;79.84
85936;BME280;76481;54.346;10.210;2024-02-28T10:35:56;101867.53;;;4.76;80.39
85936;BME280;76481;54.346;10.210;2024-02-28T10:38:21;101865.50;;;4.77;80.76
85936;BME280;76481;54.346;10.210;2024-02-28T10:40:47;101864.63;;;4.69;80.84
85936;BME280;76481;54.346;10.210;2024-02-28T10:43:16;101872.19;;;4.65;80.03
85936;BME280;76481;54.346;10.210;2024-02-28T10:45:42;101874.22;;;4.68;81.14
85936;BME280;76481;54.346;10.210;2024-02-28T10:48:08;101872.72;;;4.81;79.63
85936;BME280;76481;54.346;10.210;2024-02-28T10:50:33;101870.41;;;4.87;79.37
85936;BME280;76481;54.346;10.210;2024-02-28T10:53:03;101864.53;;;5.02;80.31
85936;BME280;76481;54.346;10.210;2024-02-28T10:55:40;101862.66;;;5.20;78.87
85936;BME280;76481;54.346;10.210;2024-02-28T10:58:10;101867.91;;;5.29;79.10
85936;BME280;76481;54.346;10.210;2024-02-28T11:00:37;101871.94;;;5.35;79.13
85936;BME280;76481;54.346;10.210;2024-02-28T11:03:16;101862.00;;;5.44;77.61
85936;BME280;76481;54.346;10.210;2024-02-28T11:05:42;101865.66;;;5.55;78.76
85936;BME280;76481;54.346;10.210;2024-02-28T11:08:29;101860.91;;;5.63;78.31
85936;BME280;76481;54.346;10.210;2024-02-28T11:11:03;101862.13;;;5.65;76.63
85936;BME280;76481;54.346;10.210;2024-02-28T11:13:33;101863.38;;;5.75;77.84
85936;BME280;76481;54.346;10.210;2024-02-28T11:16:09;101863.78;;;5.80;78.57
85936;BME280;76481;54.346;10.210;2024-02-28T11:18:34;101858.97;;;5.70;77.44
85936;BME280;76481;54.346;10.210;2024-02-28T11:21:00;101859.34;;;5.72;77.32
85936;BME280;76481;54.346;10.210;2024-02-28T11:23:35;101849.72;;;5.63;77.12
85936;BME280;76481;54.346;10.210;2024-02-28T11:26:02;101860.91;;;5.66;79.13
85936;BME280;76481;54.346;10.210;2024-02-28T11:28:29;101860.53;;;5.68;79.08
85936;BME280;76481;54.346;10.210;2024-02-28T11:31:00;101855.41;;;5.84;78.63
85936;BME280;76481;54.346;10.210;2024-02-28T11:33:26;101854.19;;;5.78;78.86
85936;BME280;76481;54.346;10.210;2024-02-28T11:35:57;101857.81;;;5.85;79.02
85936;BME280;76481;54.346;10.210;2024-02-28T11:38:26;101851.13;;;6.11;77.85
85936;BME280;76481;54.346;10.210;2024-02-28T11:40:53;101850.59;;;5.77;78.68
85936;BME280;76481;54.346;10.210;2024-02-28T11:43:25;101850.25;;;5.93;79.46
85936;BME280;76481;54.346;10.210;2024-02-28T11:45:50;101853.16;;;6.21;78.25
85936;BME280;76481;54.346;10.210;2024-02-28T11:48:24;101850.00;;;6.36;77.51
85936;BME280;76481;54.346;10.210;2024-02-28T11:50:50;101845.13;;;6.09;79.05
85936;BME280;76481;54.346;10.210;2024-02-28T11:53:16;101851.19;;;6.35;77.67
85936;BME280;76481;54.346;10.210;2024-02-28T11:55:42;101859.56;;;6.28;77.41
85936;BME280;76481;54.346;10.210;2024-02-28T11:58:11;101851.59;;;6.37;76.21
85936;BME280;76481;54.346;10.210;2024-02-28T12:00:47;101844.31;;;6.12;78.33
85936;BME280;76481;54.346;10.210;2024-02-28T12:03:13;101841.09;;;5.99;77.83
85936;BME280;76481;54.346;10.210;2024-02-28T12:05:38;101841.56;;;6.29;78.81
85936;BME280;76481;54.346;10.210;2024-02-28T12:08:04;101834.66;;;5.85;79.79
85936;BME280;76481;54.346;10.210;2024-02-28T12:10:30;101837.16;;;6.25;79.15
85936;BME280;76481;54.346;10.210;2024-02-28T12:13:00;101835.94;;;6.22;76.97
85936;BME280;76481;54.346;10.210;2024-02-28T12:15:29;101850.75;;;6.16;78.61
85936;BME280;76481;54.346;10.210;2024-02-28T12:17:54;101840.69;;;5.94;78.49
85936;BME280;76481;54.346;10.210;2024-02-28T12:20:20;101839.91;;;6.04;78.57
85936;BME280;76481;54.346;10.210;2024-02-28T12:22:45;101837.13;;;6.04;78.16
85936;BME280;76481;54.346;10.210;2024-02-28T12:25:11;101849.09;;;6.04;79.39
85936;BME280;76481;54.346;10.210;2024-02-28T12:27:36;101838.72;;;6.12;79.06
85936;BME280;76481;54.346;10.210;2024-02-28T12:30:02;101844.72;;;6.10;78.66
85936;BME280;76481;54.346;10.210;2024-02-28T12:32:28;101835.09;;;6.01;79.26
85936;BME280;76481;54.346;10.210;2024-02-28T12:34:53;101839.91;;;6.07;78.02
85936;BME280;76481;54.346;10.210;2024-02-28T12:37:19;101844.31;;;6.12;78.51
85936;BME280;76481;54.346;10.210;2024-02-28T12:39:44;101845.94;;;6.16;78.12
85936;BME280;76481;54.346;10.210;2024-02-28T12:42:10;101850.31;;;6.00;79.22
85936;BME280;76481;54.346;10.210;2024-02-28T12:44:35;101845.16;;;6.19;78.67